Time;durP1;ratioP1;P1;durP2;ratioP2;P2;SDS_P1;SDS_P2;PMS_P1;PMS_P2;Temp;Humidity;BMP_temperature;BMP_pressure;BME280_temperature;BME280_humidity;BME280_pressure;Samples;Min_cycle;Max_cycle;Signal;HPM_P1;HPM_P2
2022/04/30 00:00:10;;;;;;;6.47;2.97;;;17.60;93.00;;;;;;5055346;28;20634;-76
2022/04/30 00:02:39;;;;;;;4.03;2.50;;;17.60;93.20;;;;;;5062610;28;20234;-73
2022/04/30 00:05:07;;;;;;;4.33;2.60;;;17.70;93.30;;;;;;5056190;28;20191;-74
2022/04/30 00:07:34;;;;;;;3.67;3.33;;;17.60;93.40;;;;;;5069751;28;20221;-74
2022/04/30 00:10:02;;;;;;;3.33;2.33;;;17.70;93.50;;;;;;5072696;28;20171;-74
2022/04/30 00:12:31;;;;;;;6.60;2.40;;;17.70;93.30;;;;;;5070707;28;20183;-74
2022/04/30 00:14:58;;;;;;;5.90;2.60;;;17.70;93.50;;;;;;5052596;28;20176;-75
2022/04/30 00:17:26;;;;;;;10.17;6.17;;;17.70;93.40;;;;;;5063824;28;20192;-75
2022/04/30 00:19:53;;;;;;;12.13;6.23;;;17.80;93.20;;;;;;5062486;28;20555;-75
2022/04/30 00:22:20;;;;;;;6.20;4.27;;;17.80;93.40;;;;;;5048995;28;20762;-75
2022/04/30 00:24:48;;;;;;;9.83;5.07;;;17.80;93.20;;;;;;5051606;28;20273;-75
2022/04/30 00:27:17;;;;;;;4.93;2.90;;;17.80;93.10;;;;;;5051978;28;20704;-77
2022/04/30 00:29:45;;;;;;;4.87;3.50;;;17.80;93.00;;;;;;5052115;28;20187;-76
2022/04/30 00:32:13;;;;;;;8.00;3.27;;;17.90;93.30;;;;;;5062086;28;20246;-76
2022/04/30 00:34:41;;;;;;;6.07;4.83;;;17.90;93.30;;;;;;5069078;28;20214;-75
2022/04/30 00:37:09;;;;;;;8.37;6.33;;;17.80;93.00;;;;;;5060101;28;20180;-77
2022/04/30 00:39:36;;;;;;;7.17;4.53;;;17.80;92.90;;;;;;5057955;28;20207;-76
2022/04/30 00:42:04;;;;;;;10.13;7.90;;;17.80;92.30;;;;;;5053355;28;20226;-76
2022/04/30 00:44:31;;;;;;;4.60;3.00;;;17.80;92.40;;;;;;5054137;28;20196;-76
2022/04/30 00:46:59;;;;;;;5.27;2.10;;;17.80;91.90;;;;;;5059403;28;20552;-76
2022/04/30 00:49:26;;;;;;;3.03;2.20;;;17.70;91.30;;;;;;5054985;28;20271;-77
2022/04/30 00:51:55;;;;;;;6.30;3.20;;;17.70;90.70;;;;;;5053929;28;20261;-76
2022/04/30 00:54:26;;;;;;;4.13;3.07;;;17.80;91.00;;;;;;5051766;28;20179;-76
2022/04/30 00:56:58;;;;;;;2.90;2.60;;;17.80;90.90;;;;;;5056496;28;20634;-78
2022/04/30 00:59:26;;;;;;;14.07;2.90;;;17.70;90.60;;;;;;5056670;28;20208;-76
2022/04/30 01:01:59;;;;;;;7.20;3.93;;;17.80;90.40;;;;;;5063507;28;20222;-78
2022/04/30 01:04:27;;;;;;;3.53;2.67;;;17.80;91.30;;;;;;5055813;28;20190;-77
2022/04/30 01:07:00;;;;;;;5.87;4.90;;;17.90;90.70;;;;;;5055974;28;20609;-79
2022/04/30 01:09:29;;;;;;;6.40;5.20;;;17.80;90.90;;;;;;5053363;28;20187;-77
2022/04/30 01:12:11;;;;;;;10.07;4.00;;;17.90;91.00;;;;;;5064920;28;20213;-77
2022/04/30 01:14:39;;;;;;;5.67;2.77;;;17.90;90.90;;;;;;5072334;28;20644;-77
2022/04/30 01:17:09;;;;;;;6.53;1.80;;;17.90;91.10;;;;;;5063335;28;20265;-75
2022/04/30 01:19:40;;;;;;;8.37;2.10;;;17.80;89.60;;;;;;5054802;28;20192;-76
2022/04/30 01:22:13;;;;;;;3.60;3.07;;;17.90;90.00;;;;;;5048866;28;20298;-79
2022/04/30 01:24:41;;;;;;;5.17;2.80;;;17.80;89.70;;;;;;5064954;28;20178;-76
2022/04/30 01:27:09;;;;;;;9.30;3.40;;;17.90;90.00;;;;;;5075798;28;20211;-76
2022/04/30 01:29:37;;;;;;;6.00;2.30;;;18.00;90.20;;;;;;5069291;28;20183;-76
2022/04/30 01:37:39;;;;;;;5.80;2.20;;;18.00;89.10;;;;;;5052133;28;20195;-75
2022/04/30 01:40:11;;;;;;;2.30;1.70;;;18.10;89.10;;;;;;5055809;28;20581;-76
2022/04/30 01:42:46;;;;;;;1.40;1.30;;;18.10;89.20;;;;;;5053247;28;20232;-76
2022/04/30 01:45:18;;;;;;;2.27;1.60;;;18.20;88.70;;;;;;5057172;28;20225;-74
2022/04/30 01:47:47;;;;;;;2.40;1.33;;;18.20;89.20;;;;;;5054831;28;20245;-75
2022/04/30 01:50:15;;;;;;;1.40;1.10;;;18.30;88.60;;;;;;5053785;28;20180;-76
2022/04/30 01:52:42;;;;;;;1.80;1.30;;;18.30;87.90;;;;;;5059403;28;20187;-76
2022/04/30 01:55:11;;;;;;;4.07;1.53;;;18.30;87.60;;;;;;5055234;28;20172;-77
2022/04/30 01:57:45;;;;;;;1.77;1.30;;;18.20;88.00;;;;;;5055887;28;20176;-77
2022/04/30 02:00:14;;;;;;;5.27;2.03;;;18.20;87.90;;;;;;5055966;28;20848;-77
2022/04/30 02:02:45;;;;;;;3.33;2.50;;;18.20;88.50;;;;;;5057554;28;20319;-77
2022/04/30 02:05:16;;;;;;;1.83;1.30;;;18.20;88.40;;;;;;5055451;28;20191;-76
2022/04/30 02:08:07;;;;;;;1.87;1.30;;;18.20;88.20;;;;;;5069308;28;20212;-77
2022/04/30 02:10:40;;;;;;;16.33;14.73;;;18.20;88.50;;;;;;5052003;28;20189;-78
2022/04/30 02:13:09;;;;;;;3.10;2.40;;;18.30;89.00;;;;;;5073291;28;20186;-77
2022/04/30 02:15:45;;;;;;;2.63;1.80;;;18.30;89.10;;;;;;5059265;28;20250;-76
2022/04/30 02:18:13;;;;;;;2.80;1.60;;;18.20;88.90;;;;;;5054657;28;20537;-76
2022/04/30 02:20:44;;;;;;;5.67;1.80;;;18.20;89.30;;;;;;5062115;28;20183;-78
2022/04/30 02:23:12;;;;;;;2.50;1.40;;;18.20;89.30;;;;;;5051308;28;20247;-79
2022/04/30 02:25:39;;;;;;;2.37;1.40;;;18.30;89.30;;;;;;5053687;28;20198;-78
2022/04/30 02:28:08;;;;;;;8.83;6.63;;;18.30;89.50;;;;;;5053249;28;20517;-76
2022/04/30 02:30:37;;;;;;;5.23;3.87;;;18.30;89.30;;;;;;5054639;28;20859;-79
2022/04/30 02:33:16;;;;;;;3.60;2.20;;;18.30;89.70;;;;;;5054858;28;20262;-77
2022/04/30 02:35:44;;;;;;;3.40;1.87;;;18.30;90.40;;;;;;5053613;28;20183;-79
2022/04/30 02:38:12;;;;;;;2.77;1.70;;;18.40;90.50;;;;;;5058141;28;20206;-80
2022/04/30 02:40:41;;;;;;;1.83;1.73;;;18.40;90.50;;;;;;5050101;28;20179;-80
2022/04/30 02:43:12;;;;;;;2.27;1.70;;;18.40;90.60;;;;;;5060421;28;20219;-80
2022/04/30 02:45:42;;;;;;;2.00;1.80;;;18.40;90.60;;;;;;5049228;28;20194;-81
2022/04/30 02:48:12;;;;;;;2.90;2.30;;;18.40;90.50;;;;;;5052516;28;20232;-81
2022/04/30 02:50:40;;;;;;;4.53;2.37;;;18.30;90.70;;;;;;5068163;28;20240;-81
2022/04/30 02:53:08;;;;;;;2.40;2.20;;;18.30;90.80;;;;;;5068824;28;20262;-89
2022/04/30 02:55:36;;;;;;;3.20;2.43;;;18.40;91.00;;;;;;5061354;28;20183;-79
2022/04/30 03:00:51;;;;;;;5.50;3.10;;;18.40;91.40;;;;;;5057220;28;20198;-80
2022/04/30 03:03:19;;;;;;;3.27;2.80;;;18.50;91.40;;;;;;5054286;28;20203;-83
2022/04/30 03:05:50;;;;;;;4.17;2.77;;;18.50;91.30;;;;;;5055981;28;20214;-86
2022/04/30 03:08:20;;;;;;;4.07;2.87;;;18.50;91.30;;;;;;5053897;28;20169;-84
2022/04/30 03:10:53;;;;;;;6.47;3.03;;;18.50;91.40;;;;;;5053772;28;20700;-87
2022/04/30 03:13:21;;;;;;;11.27;9.77;;;18.50;91.40;;;;;;5061580;28;20184;-84
2022/04/30 03:15:53;;;;;;;9.27;7.80;;;18.50;91.50;;;;;;5069443;28;20262;-82
2022/04/30 03:23:54;;;;;;;5.60;3.13;;;18.60;91.30;;;;;;5052360;28;20306;-77
2022/04/30 03:26:21;;;;;;;4.60;3.13;;;18.50;90.90;;;;;;5052930;28;20199;-76
2022/04/30 03:28:51;;;;;;;6.03;3.27;;;18.60;91.10;;;;;;5053091;28;20172;-76
2022/04/30 03:31:19;;;;;;;7.43;3.30;;;18.70;91.40;;;;;;5053117;28;20179;-76
2022/04/30 03:33:48;;;;;;;7.47;5.00;;;18.70;91.50;;;;;;5053054;28;20199;-76
2022/04/30 03:36:17;;;;;;;9.07;4.40;;;18.70;91.50;;;;;;5036596;28;20254;-77
2022/04/30 03:38:45;;;;;;;7.67;4.07;;;18.80;91.70;;;;;;5034066;28;20165;-79
2022/04/30 03:41:12;;;;;;;8.30;4.73;;;18.80;91.50;;;;;;5042045;28;20172;-77
2022/04/30 03:43:40;;;;;;;5.53;3.53;;;18.80;91.60;;;;;;5053293;28;20776;-77
2022/04/30 03:46:07;;;;;;;4.47;3.47;;;18.80;90.90;;;;;;5053805;28;20211;-75
2022/04/30 03:48:34;;;;;;;6.53;3.33;;;18.80;91.10;;;;;;5056214;28;20266;-78
2022/04/30 03:51:02;;;;;;;6.00;3.10;;;18.80;91.00;;;;;;5055744;28;20531;-76
2022/04/30 03:53:29;;;;;;;5.40;2.97;;;18.90;91.30;;;;;;5038647;28;20246;-81
2022/04/30 03:55:57;;;;;;;4.27;2.60;;;19.00;91.40;;;;;;5049854;28;20176;-82
2022/04/30 03:58:24;;;;;;;5.57;3.27;;;19.00;91.10;;;;;;5056359;28;20176;-83
2022/04/30 04:00:53;;;;;;;3.93;3.07;;;19.00;91.20;;;;;;5056853;28;20176;-85
2022/04/30 04:03:22;;;;;;;5.50;3.00;;;19.10;91.10;;;;;;5058502;28;20195;-83
2022/04/30 04:05:49;;;;;;;4.40;2.70;;;19.10;90.80;;;;;;5059944;28;20200;-84
2022/04/30 04:08:17;;;;;;;3.83;1.93;;;19.00;90.40;;;;;;5066450;28;20328;-84
2022/04/30 04:10:45;;;;;;;6.53;2.57;;;19.00;89.40;;;;;;5057730;28;20278;-81
2022/04/30 04:18:42;;;;;;;4.47;2.87;;;19.10;90.00;;;;;;5061111;28;20191;-85
2022/04/30 04:21:11;;;;;;;5.83;3.30;;;19.20;90.00;;;;;;5061193;28;20168;-85
2022/04/30 04:26:24;;;;;;;4.77;2.43;;;19.30;89.60;;;;;;5058118;28;20716;-84
2022/04/30 04:28:51;;;;;;;7.40;2.50;;;19.30;89.30;;;;;;5056239;28;20172;-86
2022/04/30 04:31:22;;;;;;;4.70;2.57;;;19.40;89.30;;;;;;5056438;28;20172;-87
2022/04/30 04:33:50;;;;;;;7.07;2.17;;;19.50;88.70;;;;;;5058322;28;20176;-85
2022/04/30 04:36:18;;;;;;;7.57;2.00;;;19.40;87.70;;;;;;5058536;28;20614;-81
2022/04/30 04:38:45;;;;;;;4.33;1.80;;;19.40;87.60;;;;;;5065505;28;20576;-82
2022/04/30 04:41:13;;;;;;;4.37;1.70;;;19.30;86.80;;;;;;5078639;28;20163;-85
2022/04/30 04:43:40;;;;;;;3.23;1.47;;;19.30;86.30;;;;;;5077261;28;20264;-91
2022/04/30 04:46:08;;;;;;;2.87;1.40;;;19.50;86.60;;;;;;5068041;28;20215;-94
2022/04/30 04:48:36;;;;;;;4.33;2.30;;;19.70;86.70;;;;;;5056502;28;20290;-92
2022/04/30 04:51:04;;;;;;;4.03;2.03;;;19.80;86.70;;;;;;5057130;28;20259;-94
2022/04/30 04:53:31;;;;;;;3.63;1.50;;;20.00;86.50;;;;;;5055250;28;20180;-93
2022/04/30 04:56:02;;;;;;;5.13;1.80;;;19.90;84.80;;;;;;5086569;28;20190;-90
2022/04/30 04:58:29;;;;;;;5.10;3.30;;;20.10;84.80;;;;;;5062070;28;20186;-90
2022/04/30 05:00:56;;;;;;;4.43;2.73;;;20.20;85.40;;;;;;5074899;28;20168;-88
2022/04/30 05:03:24;;;;;;;2.43;1.43;;;20.30;84.30;;;;;;5075407;28;20505;-90
2022/04/30 05:05:51;;;;;;;7.03;1.73;;;20.50;83.70;;;;;;5074410;28;20282;-91
2022/04/30 05:08:18;;;;;;;3.97;1.57;;;20.70;82.40;;;;;;5056303;28;20184;-89
2022/04/30 05:10:46;;;;;;;4.70;1.60;;;20.90;81.50;;;;;;5055410;28;20685;-88
2022/04/30 05:13:13;;;;;;;2.17;1.10;;;21.10;80.40;;;;;;5058353;28;20168;-87
2022/04/30 05:15:41;;;;;;;2.47;1.33;;;21.30;78.70;;;;;;5056904;28;20195;-85
2022/04/30 05:18:08;;;;;;;3.97;1.40;;;21.70;78.50;;;;;;5056101;28;20176;-84
2022/04/30 05:20:36;;;;;;;4.67;1.30;;;22.60;77.00;;;;;;5052074;28;20234;-84
2022/04/30 05:23:04;;;;;;;2.10;0.93;;;23.70;71.40;;;;;;5056017;28;20179;-84
2022/04/30 05:25:31;;;;;;;10.30;8.53;;;23.90;68.00;;;;;;5060558;28;20164;-82
2022/04/30 05:27:59;;;;;;;5.63;3.40;;;23.20;69.40;;;;;;5057458;28;20188;-77
2022/04/30 05:30:26;;;;;;;10.60;8.83;;;23.00;69.60;;;;;;5058588;28;20187;-78
2022/04/30 05:32:54;;;;;;;3.20;1.80;;;23.00;70.50;;;;;;5057587;28;20172;-81
2022/04/30 05:35:21;;;;;;;2.93;1.50;;;24.30;69.10;;;;;;5061097;28;20186;-79
2022/04/30 05:37:48;;;;;;;2.77;1.30;;;25.30;62.70;;;;;;5058145;28;20178;-82
2022/04/30 05:40:16;;;;;;;1.30;0.90;;;24.70;63.20;;;;;;5082967;28;20181;-80
2022/04/30 05:42:43;;;;;;;5.27;1.30;;;23.90;64.90;;;;;;5046519;28;20294;-82
2022/04/30 05:45:10;;;;;;;1.77;1.20;;;24.00;65.40;;;;;;5055569;28;20179;-83
2022/04/30 05:47:38;;;;;;;2.00;0.97;;;24.40;64.20;;;;;;5057470;28;20254;-81
2022/04/30 05:50:07;;;;;;;2.87;0.87;;;24.80;64.00;;;;;;5053132;28;20191;-85
2022/04/30 05:52:34;;;;;;;2.00;0.90;;;25.80;61.50;;;;;;5040014;28;20281;-80
2022/04/30 05:55:02;;;;;;;2.50;1.27;;;26.40;58.60;;;;;;5052307;28;20173;-80
2022/04/30 05:57:30;;;;;;;4.20;1.17;;;25.80;59.00;;;;;;5055603;28;20657;-84
2022/04/30 05:59:58;;;;;;;1.23;0.80;;;26.80;55.50;;;;;;5056248;28;20229;-82
2022/04/30 06:02:26;;;;;;;3.83;1.00;;;26.80;56.10;;;;;;5056642;28;20259;-80
2022/04/30 06:04:53;;;;;;;1.10;0.87;;;26.40;56.30;;;;;;5056722;28;20259;-79
2022/04/30 06:07:20;;;;;;;1.83;1.00;;;25.70;59.90;;;;;;5056297;28;20215;-80
2022/04/30 06:09:48;;;;;;;5.00;1.07;;;24.40;62.20;;;;;;5055525;28;20176;-81
2022/04/30 06:12:16;;;;;;;3.10;1.10;;;24.10;63.20;;;;;;5057392;28;20179;-81
2022/04/30 06:14:44;;;;;;;2.97;1.00;;;23.00;66.40;;;;;;5055726;28;20211;-82
2022/04/30 06:17:11;;;;;;;3.17;1.10;;;22.40;68.50;;;;;;5048852;28;20643;-82
2022/04/30 06:19:41;;;;;;;2.90;1.10;;;21.80;70.20;;;;;;5052778;28;20195;-81
2022/04/30 06:22:09;;;;;;;1.97;1.20;;;21.40;71.80;;;;;;5051121;28;20661;-81
2022/04/30 06:24:36;;;;;;;3.83;1.10;;;21.30;74.70;;;;;;5052482;28;20595;-81
2022/04/30 06:27:04;;;;;;;2.50;1.40;;;21.20;75.70;;;;;;5054422;28;20318;-82
2022/04/30 06:29:31;;;;;;;3.87;0.97;;;21.00;76.50;;;;;;5054691;28;20587;-81
2022/04/30 06:31:59;;;;;;;2.93;1.17;;;20.80;76.30;;;;;;5054457;28;20186;-81
2022/04/30 06:34:26;;;;;;;1.63;1.13;;;20.60;76.20;;;;;;5055026;28;20175;-83
2022/04/30 06:36:53;;;;;;;2.13;1.00;;;20.50;76.60;;;;;;5054713;28;20654;-82
2022/04/30 06:39:21;;;;;;;2.87;1.10;;;20.30;77.00;;;;;;5054828;28;20176;-82
2022/04/30 06:41:51;;;;;;;3.77;1.23;;;20.20;78.00;;;;;;5053817;28;20203;-81
2022/04/30 06:44:18;;;;;;;5.83;1.40;;;20.20;79.60;;;;;;5054742;28;20266;-82
2022/04/30 06:46:46;;;;;;;5.67;1.77;;;20.10;80.20;;;;;;5054206;28;20212;-81
2022/04/30 06:49:13;;;;;;;3.00;1.30;;;20.00;80.80;;;;;;5052996;28;20172;-81
2022/04/30 06:51:40;;;;;;;2.33;1.40;;;19.90;81.20;;;;;;5054836;28;20542;-81
2022/04/30 06:57:11;;;;;;;2.37;1.50;;;19.60;82.30;;;;;;5053764;28;20187;-81
2022/04/30 06:59:42;;;;;;;2.30;1.33;;;19.50;82.50;;;;;;5048647;28;20176;-79
2022/04/30 07:02:17;;;;;;;4.67;1.40;;;19.40;82.80;;;;;;5049291;28;20180;-80
2022/04/30 07:04:49;;;;;;;3.20;1.33;;;19.30;83.00;;;;;;5056228;28;20262;-81
2022/04/30 07:07:17;;;;;;;1.63;1.27;;;19.20;83.50;;;;;;5056921;28;20322;-80
2022/04/30 07:09:44;;;;;;;2.43;1.47;;;19.20;83.90;;;;;;5053148;28;20246;-80
2022/04/30 07:12:14;;;;;;;3.70;1.70;;;19.10;84.60;;;;;;5052193;28;20632;-80
2022/04/30 07:14:44;;;;;;;5.07;1.70;;;19.00;84.90;;;;;;5060959;28;20180;-83
2022/04/30 07:17:13;;;;;;;3.20;1.30;;;18.90;85.00;;;;;;5057034;28;20193;-81
2022/04/30 07:19:41;;;;;;;4.20;1.40;;;18.80;85.60;;;;;;5054327;28;20190;-81
2022/04/30 07:22:09;;;;;;;2.20;1.30;;;18.70;85.60;;;;;;5053830;28;20180;-81
2022/04/30 07:24:37;;;;;;;2.70;1.33;;;18.60;85.70;;;;;;5053807;28;20255;-81
2022/04/30 07:27:05;;;;;;;3.10;1.03;;;18.50;86.30;;;;;;5051814;28;20273;-82
2022/04/30 07:29:33;;;;;;;2.10;1.27;;;18.40;86.40;;;;;;5052471;28;20221;-82
2022/04/30 07:32:02;;;;;;;3.23;1.80;;;18.30;86.70;;;;;;5053733;28;20289;-82
2022/04/30 07:34:29;;;;;;;2.63;2.00;;;18.30;87.50;;;;;;5045280;28;20184;-83
2022/04/30 07:36:58;;;;;;;3.47;2.03;;;18.30;88.20;;;;;;5053203;28;20179;-82
2022/04/30 07:39:25;;;;;;;2.63;2.20;;;18.30;88.70;;;;;;5050596;28;20179;-81
2022/04/30 07:41:54;;;;;;;8.13;4.07;;;18.10;88.80;;;;;;5052578;28;20544;-79
2022/04/30 07:44:30;;;;;;;7.07;5.17;;;18.00;88.90;;;;;;5054472;28;20180;-78
2022/04/30 07:46:58;;;;;;;7.10;5.43;;;18.00;89.30;;;;;;5053735;28;20215;-80
2022/04/30 07:49:28;;;;;;;11.73;4.20;;;17.90;89.50;;;;;;5047819;28;20202;-80
2022/04/30 07:51:56;;;;;;;8.43;4.77;;;17.80;89.30;;;;;;5047130;28;20188;-83
2022/04/30 07:54:27;;;;;;;6.77;4.90;;;17.90;90.10;;;;;;5052703;28;20176;-80
2022/04/30 07:56:59;;;;;;;9.60;4.70;;;17.90;90.10;;;;;;5044873;28;20176;-81
2022/04/30 07:59:28;;;;;;;7.20;5.37;;;17.90;90.50;;;;;;5051316;28;20171;-81
2022/04/30 08:01:55;;;;;;;5.77;5.00;;;17.80;90.30;;;;;;5052081;28;20688;-81
2022/04/30 08:04:23;;;;;;;9.33;5.87;;;17.80;90.60;;;;;;5057697;28;20178;-81
2022/04/30 08:06:50;;;;;;;7.93;5.03;;;17.60;90.60;;;;;;5067230;28;20291;-81
2022/04/30 08:09:21;;;;;;;6.93;4.63;;;17.60;90.50;;;;;;5051008;28;20183;-81
2022/04/30 08:11:48;;;;;;;5.60;4.87;;;17.50;90.70;;;;;;5050654;28;20279;-81
2022/04/30 08:14:16;;;;;;;8.53;5.27;;;17.60;90.70;;;;;;5052184;28;20244;-83
2022/04/30 08:16:43;;;;;;;7.13;5.50;;;17.60;91.20;;;;;;5052359;28;20174;-84
2022/04/30 08:19:11;;;;;;;7.97;4.83;;;17.40;91.00;;;;;;5051678;28;20186;-81
2022/04/30 08:21:38;;;;;;;5.83;4.83;;;17.20;91.10;;;;;;5052243;28;20187;-79
2022/04/30 08:24:06;;;;;;;9.60;5.57;;;17.20;91.50;;;;;;5046127;28;20343;-79
2022/04/30 08:26:33;;;;;;;7.50;5.17;;;17.20;91.60;;;;;;5056870;28;20731;-80
2022/04/30 08:29:00;;;;;;;7.80;4.90;;;17.10;91.70;;;;;;5051489;28;20268;-80
2022/04/30 08:31:28;;;;;;;9.07;4.50;;;17.20;92.00;;;;;;5050974;28;20178;-81
2022/04/30 08:33:55;;;;;;;9.87;5.10;;;17.20;92.20;;;;;;5051769;28;20224;-80
2022/04/30 08:36:22;;;;;;;9.97;5.40;;;17.20;92.10;;;;;;5050688;28;20172;-80
2022/04/30 08:38:50;;;;;;;8.73;5.57;;;17.20;92.20;;;;;;5054248;28;20684;-81
2022/04/30 08:41:17;;;;;;;6.93;5.37;;;17.10;92.10;;;;;;5057740;28;20336;-82
2022/04/30 08:43:48;;;;;;;9.27;5.53;;;17.00;92.00;;;;;;5051046;28;20661;-80
2022/04/30 08:46:20;;;;;;;9.70;6.20;;;17.00;92.20;;;;;;5052359;28;20209;-83
2022/04/30 08:48:48;;;;;;;7.57;5.80;;;16.90;92.30;;;;;;5052440;28;20198;-83
2022/04/30 08:51:18;;;;;;;9.73;5.93;;;16.90;92.40;;;;;;5053064;28;20186;-84
2022/04/30 08:53:45;;;;;;;7.07;6.07;;;16.90;92.70;;;;;;5053894;28;20270;-82
2022/04/30 08:56:12;;;;;;;7.77;5.70;;;16.80;92.70;;;;;;5054878;28;20232;-80
2022/04/30 08:58:40;;;;;;;12.50;7.00;;;16.80;92.50;;;;;;5054769;28;20252;-81
2022/04/30 09:01:09;;;;;;;7.83;6.17;;;16.70;92.60;;;;;;5058805;28;20178;-81
2022/04/30 09:03:38;;;;;;;8.73;6.33;;;16.60;92.60;;;;;;5075508;28;20206;-81
2022/04/30 09:06:06;;;;;;;10.17;7.53;;;16.60;92.90;;;;;;5083358;28;20261;-79
2022/04/30 09:08:35;;;;;;;10.33;8.40;;;16.60;92.90;;;;;;5091785;28;20170;-78
2022/04/30 09:11:06;;;;;;;10.80;8.90;;;16.60;93.20;;;;;;5078586;28;20174;-83
2022/04/30 09:13:43;;;;;;;9.97;7.53;;;16.70;93.60;;;;;;5076616;28;20189;-79
2022/04/30 09:16:24;;;;;;;10.63;7.77;;;16.70;93.40;;;;;;5108413;28;20616;-77
2022/04/30 09:18:55;;;;;;;16.10;9.07;;;16.60;93.20;;;;;;5075262;28;20184;-78
2022/04/30 09:21:23;;;;;;;13.03;9.37;;;16.50;93.40;;;;;;5073400;28;20209;-78
2022/04/30 09:23:50;;;;;;;14.57;10.40;;;16.50;93.40;;;;;;5055284;28;20179;-78
2022/04/30 09:26:18;;;;;;;12.97;10.20;;;16.50;93.50;;;;;;5054783;28;20198;-77
2022/04/30 09:28:50;;;;;;;19.13;14.30;;;16.50;93.30;;;;;;5055506;28;20186;-78
2022/04/30 09:31:21;;;;;;;13.10;11.37;;;16.50;93.20;;;;;;5055523;28;20175;-78
2022/04/30 09:37:41;;;;;;;16.97;11.33;;;16.50;93.10;;;;;;5055001;28;20178;-77
2022/04/30 09:39:37;;;;;;;11.80;9.20;;;16.50;92.80;;;;;;5055416;28;20201;-79
2022/04/30 09:42:05;;;;;;;11.90;8.83;;;16.50;92.80;;;;;;5054799;28;20218;-82
2022/04/30 09:44:37;;;;;;;10.97;9.43;;;16.60;92.30;;;;;;5055752;28;20175;-83
2022/04/30 09:47:07;;;;;;;12.97;10.17;;;16.60;92.50;;;;;;5055435;28;20202;-84
2022/04/30 09:55:08;;;;;;;13.43;7.70;;;16.50;91.70;;;;;;5055203;28;20537;-78
2022/04/30 09:57:39;;;;;;;10.40;6.37;;;16.50;89.90;;;;;;5049000;28;20173;-85
2022/04/30 10:00:08;;;;;;;9.33;6.30;;;16.40;88.50;;;;;;5035414;28;20216;-85
2022/04/30 10:02:37;;;;;;;11.20;6.30;;;16.50;86.00;;;;;;5036068;28;20174;-90
2022/04/30 10:05:05;;;;;;;10.43;6.43;;;16.50;85.20;;;;;;5035178;28;20189;-83
2022/04/30 10:07:33;;;;;;;7.03;4.90;;;16.50;85.00;;;;;;5035419;28;20210;-85
2022/04/30 10:10:21;;;;;;;5.70;4.43;;;16.40;83.30;;;;;;5035188;28;20173;-79
2022/04/30 10:12:54;;;;;;;7.63;3.37;;;16.40;80.90;;;;;;5037820;28;20167;-84
2022/04/30 10:15:22;;;;;;;4.37;3.30;;;16.50;76.00;;;;;;5035159;28;20609;-81
2022/04/30 10:18:00;;;;;;;5.40;2.87;;;16.50;75.80;;;;;;5034211;28;20168;-81
2022/04/30 10:20:34;;;;;;;5.63;3.13;;;16.50;73.70;;;;;;5036069;28;20178;-79
2022/04/30 10:23:04;;;;;;;3.33;2.00;;;16.50;72.60;;;;;;5050211;28;20202;-78
2022/04/30 10:25:48;;;;;;;4.23;2.10;;;16.50;71.80;;;;;;5054591;28;20176;-78
2022/04/30 10:28:23;;;;;;;6.20;2.30;;;16.40;70.80;;;;;;5054465;28;20548;-79
2022/04/30 10:31:03;;;;;;;6.40;1.60;;;16.30;70.80;;;;;;5054788;28;20170;-79
2022/04/30 10:33:32;;;;;;;3.60;2.23;;;16.30;69.80;;;;;;5054478;28;20525;-79
2022/04/30 10:36:10;;;;;;;5.30;2.80;;;16.30;69.50;;;;;;5054302;28;20239;-79
2022/04/30 10:38:39;;;;;;;4.67;2.87;;;16.20;70.80;;;;;;5053523;28;20198;-78
2022/04/30 10:41:09;;;;;;;4.10;2.13;;;16.10;72.00;;;;;;5053790;28;20689;-79
2022/04/30 10:43:39;;;;;;;7.20;2.17;;;15.90;70.80;;;;;;5054027;28;20211;-78
2022/04/30 10:46:20;;;;;;;4.27;1.90;;;15.90;71.30;;;;;;5053613;28;20238;-78
2022/04/30 10:48:48;;;;;;;3.63;1.90;;;15.80;71.30;;;;;;5053738;28;20198;-78
2022/04/30 10:51:31;;;;;;;5.10;2.10;;;15.80;71.80;;;;;;5053878;28;20179;-79
2022/04/30 10:53:59;;;;;;;2.57;1.70;;;15.80;70.10;;;;;;5053647;28;20262;-79
2022/04/30 10:56:30;;;;;;;3.80;1.70;;;15.80;71.10;;;;;;5053382;28;20166;-78
2022/04/30 10:58:57;;;;;;;2.97;1.50;;;15.70;71.10;;;;;;5053784;28;20631;-77
2022/04/30 11:01:25;;;;;;;5.10;1.33;;;15.70;69.60;;;;;;5053969;28;20259;-78
2022/04/30 11:03:52;;;;;;;6.33;2.30;;;15.90;67.80;;;;;;5053835;28;20179;-76
2022/04/30 11:06:25;;;;;;;5.20;2.13;;;15.90;66.80;;;;;;5085559;28;20192;-78
2022/04/30 11:09:08;;;;;;;6.40;1.70;;;16.00;66.50;;;;;;5052648;28;20673;-79
2022/04/30 11:11:37;;;;;;;5.37;1.60;;;15.90;67.30;;;;;;5053406;28;20182;-80
2022/04/30 11:14:07;;;;;;;3.50;1.17;;;15.80;67.40;;;;;;5053428;28;20181;-77
2022/04/30 11:16:37;;;;;;;3.20;1.30;;;16.00;66.40;;;;;;5053023;28;20172;-77
2022/04/30 11:19:09;;;;;;;6.33;1.10;;;16.00;65.60;;;;;;5053316;28;20179;-79
2022/04/30 11:21:38;;;;;;;4.10;1.20;;;15.90;65.40;;;;;;5053542;28;20275;-78
2022/04/30 11:24:07;;;;;;;2.60;0.90;;;16.00;65.10;;;;;;5053464;28;20197;-78
2022/04/30 11:26:42;;;;;;;2.60;1.20;;;16.00;64.70;;;;;;5053140;28;20506;-78
2022/04/30 11:29:14;;;;;;;4.13;1.00;;;16.00;64.60;;;;;;5053639;28;20178;-77
2022/04/30 11:31:44;;;;;;;2.70;1.00;;;16.00;64.40;;;;;;5053582;28;20198;-78
2022/04/30 11:34:21;;;;;;;3.63;1.60;;;16.00;63.90;;;;;;5053344;28;20265;-78
2022/04/30 11:36:59;;;;;;;3.80;1.23;;;15.90;64.80;;;;;;5053389;28;20591;-78
2022/04/30 11:39:28;;;;;;;4.50;1.63;;;15.80;65.70;;;;;;5053405;28;20175;-79
2022/04/30 11:41:56;;;;;;;2.23;1.50;;;15.90;63.40;;;;;;5052795;28;20219;-78
2022/04/30 11:44:30;;;;;;;3.17;1.47;;;15.90;65.30;;;;;;5053252;28;20171;-78
2022/04/30 11:46:58;;;;;;;6.10;1.33;;;15.80;65.40;;;;;;5053055;28;20681;-79
2022/04/30 11:49:27;;;;;;;5.60;1.43;;;15.70;65.60;;;;;;5085461;28;20180;-78
2022/04/30 11:51:58;;;;;;;2.20;1.27;;;15.70;65.20;;;;;;5053248;28;20173;-79
2022/04/30 11:54:30;;;;;;;2.83;1.43;;;15.70;64.80;;;;;;5053270;28;20176;-77
2022/04/30 11:57:02;;;;;;;2.57;1.30;;;15.70;65.40;;;;;;5052783;28;20233;-79
2022/04/30 11:59:30;;;;;;;3.87;1.23;;;15.70;65.40;;;;;;5052775;28;20176;-79
2022/04/30 12:02:05;;;;;;;6.03;1.07;;;15.70;64.90;;;;;;5053872;28;20189;-78
2022/04/30 12:04:35;;;;;;;2.57;1.10;;;15.70;65.20;;;;;;5052951;28;20179;-79
2022/04/30 12:07:06;;;;;;;3.60;1.40;;;15.70;66.10;;;;;;5052730;28;20217;-77
2022/04/30 12:09:40;;;;;;;5.27;1.30;;;15.70;65.10;;;;;;5054799;28;20189;-79
2022/04/30 12:12:17;;;;;;;2.63;1.30;;;15.70;64.80;;;;;;5051524;28;20663;-79
2022/04/30 12:14:49;;;;;;;2.57;1.10;;;15.60;65.70;;;;;;5038118;28;20190;-79
2022/04/30 12:17:17;;;;;;;4.33;1.27;;;15.50;66.30;;;;;;5032776;28;20174;-78
2022/04/30 12:25:20;;;;;;;3.47;1.10;;;15.50;66.00;;;;;;5056216;28;20183;-79
2022/04/30 12:28:02;;;;;;;4.67;1.50;;;15.30;67.30;;;;;;5052230;28;20216;-78
2022/04/30 12:30:32;;;;;;;4.60;1.30;;;15.30;66.90;;;;;;5053066;28;20187;-76
2022/04/30 12:33:05;;;;;;;6.13;1.53;;;15.30;66.90;;;;;;5052080;28;20172;-79
2022/04/30 12:35:38;;;;;;;5.97;1.10;;;15.30;67.10;;;;;;5052924;28;20638;-78
2022/04/30 12:38:14;;;;;;;2.90;1.07;;;15.20;66.50;;;;;;5053092;28;20211;-79
2022/04/30 12:40:47;;;;;;;2.10;1.00;;;15.20;68.00;;;;;;5049733;28;20197;-78
2022/04/30 12:43:16;;;;;;;3.53;1.50;;;15.10;69.10;;;;;;5052132;28;20686;-79
2022/04/30 12:45:45;;;;;;;3.07;1.27;;;15.00;68.10;;;;;;5052328;28;20176;-77
2022/04/30 12:48:14;;;;;;;9.23;1.73;;;15.10;68.20;;;;;;5052313;28;20203;-79
2022/04/30 12:50:42;;;;;;;2.53;1.20;;;15.10;67.30;;;;;;5051545;28;20187;-79
2022/04/30 12:53:09;;;;;;;2.73;1.40;;;15.10;67.00;;;;;;5047820;28;20216;-78
2022/04/30 12:55:42;;;;;;;2.87;1.20;;;15.10;67.70;;;;;;5031980;28;20188;-78
2022/04/30 12:58:10;;;;;;;7.13;1.50;;;15.00;69.70;;;;;;5031350;28;20636;-77
2022/04/30 13:00:38;;;;;;;5.87;1.50;;;14.90;71.10;;;;;;5032331;28;20187;-78
2022/04/30 13:03:07;;;;;;;6.23;1.60;;;14.80;71.60;;;;;;5052543;28;20189;-78
2022/04/30 13:05:34;;;;;;;2.70;1.30;;;14.80;70.00;;;;;;5052230;28;20167;-76
2022/04/30 13:08:01;;;;;;;4.43;1.47;;;14.70;70.50;;;;;;5051782;28;20208;-77
2022/04/30 13:13:32;;;;;;;2.80;1.03;;;14.70;69.30;;;;;;5052044;28;20237;-77
2022/04/30 13:16:09;;;;;;;6.10;1.40;;;14.80;68.50;;;;;;5051665;28;20196;-78
2022/04/30 13:18:37;;;;;;;5.23;1.40;;;14.80;71.10;;;;;;5048570;28;20638;-78
2022/04/30 13:21:05;;;;;;;4.10;1.30;;;14.70;71.80;;;;;;5051407;28;20186;-77
2022/04/30 13:23:33;;;;;;;3.03;1.20;;;14.60;70.60;;;;;;5050463;28;20238;-78
2022/04/30 13:26:02;;;;;;;5.63;1.53;;;14.50;71.00;;;;;;5046721;28;20555;-78
2022/04/30 13:28:29;;;;;;;4.30;1.50;;;14.40;73.30;;;;;;5057391;28;20201;-77
2022/04/30 13:30:57;;;;;;;3.00;1.03;;;14.40;73.80;;;;;;5068574;28;20172;-78
2022/04/30 13:33:24;;;;;;;5.67;1.60;;;14.30;74.40;;;;;;5051556;28;20226;-77
2022/04/30 13:35:51;;;;;;;1.77;1.33;;;14.20;75.30;;;;;;5052014;28;20195;-76
2022/04/30 13:38:19;;;;;;;4.33;1.50;;;14.20;75.60;;;;;;5050680;28;20209;-77